Time;durP1;ratioP1;P1;durP2;ratioP2;P2;SDS_P1;SDS_P2;PMS_P1;PMS_P2;Temp;Humidity;BMP_temperature;BMP_pressure;BME280_temperature;BME280_humidity;BME280_pressure;Samples;Min_cycle;Max_cycle;Signal;HPM_P1;HPM_P2
2022/08/13 00:01:39;;;;;;;1.70;1.60;;;;;;;20.97;47.77;99094.53;5075845;28;20055;-78
2022/08/13 00:04:05;;;;;;;1.95;1.67;;;;;;;20.99;47.70;99115.97;5075842;28;20124;-78
2022/08/13 00:09:11;;;;;;;1.98;1.77;;;;;;;21.07;47.74;99118.75;5074370;28;20435;-78
2022/08/13 00:14:31;;;;;;;1.52;1.42;;;;;;;21.05;47.84;99115.56;5084190;28;20059;-78
2022/08/13 00:16:58;;;;;;;2.25;2.05;;;;;;;20.99;48.10;99110.53;5071038;28;20033;-78
2022/08/13 00:19:30;;;;;;;2.97;1.85;;;;;;;21.15;47.70;99114.47;5063215;28;20089;-78
2022/08/13 00:21:58;;;;;;;4.57;2.05;;;;;;;21.13;47.87;99116.72;5060803;28;20037;-78
2022/08/13 00:24:24;;;;;;;4.13;2.25;;;;;;;20.95;48.21;99104.91;5073779;28;20028;-77
2022/08/13 00:26:50;;;;;;;1.98;1.80;;;;;;;20.53;49.20;99119.75;5079021;28;20025;-78
2022/08/13 00:29:16;;;;;;;3.83;2.13;;;;;;;20.24;50.86;99111.22;5062815;28;20037;-78
2022/08/13 00:31:43;;;;;;;2.90;2.20;;;;;;;20.27;51.24;99121.44;5065345;28;20047;-78
2022/08/13 00:34:08;;;;;;;2.40;1.88;;;;;;;20.50;49.25;99114.16;5096206;28;20028;-78
2022/08/13 00:36:35;;;;;;;2.60;1.95;;;;;;;20.09;49.99;99096.03;5075517;28;20086;-78
2022/08/13 00:39:04;;;;;;;4.72;2.55;;;;;;;20.09;51.05;99092.56;5061175;28;20484;-78
2022/08/13 00:41:38;;;;;;;2.45;1.83;;;;;;;20.50;49.21;99106.81;5054862;28;20079;-78
2022/08/13 00:44:07;;;;;;;1.90;1.80;;;;;;;20.11;50.83;99102.00;5071855;28;20086;-78
2022/08/13 00:46:33;;;;;;;2.28;2.10;;;;;;;20.72;48.90;99106.03;5057370;28;20037;-78
2022/08/13 00:49:01;;;;;;;2.97;2.13;;;;;;;20.71;48.70;99102.50;5053667;28;20037;-78
2022/08/13 00:51:28;;;;;;;2.83;1.60;;;;;;;20.55;48.71;99095.84;5075211;28;20036;-78
2022/08/13 00:53:54;;;;;;;1.92;1.65;;;;;;;20.26;49.89;99105.50;5071152;28;20378;-78
2022/08/13 00:56:22;;;;;;;4.43;2.08;;;;;;;20.41;49.25;99083.44;5088009;28;20041;-78
2022/08/13 00:58:49;;;;;;;2.88;1.90;;;;;;;20.47;48.96;99093.88;5070162;28;20021;-78
2022/08/13 01:01:15;;;;;;;2.45;1.77;;;;;;;20.27;48.92;99078.06;5056808;28;20492;-78
2022/08/13 01:03:42;;;;;;;1.80;1.70;;;;;;;20.40;49.07;99103.56;5071316;28;20078;-78
2022/08/13 01:06:09;;;;;;;1.75;1.65;;;;;;;20.33;49.17;99093.13;5073164;28;20472;-78
2022/08/13 01:08:40;;;;;;;2.97;1.95;;;;;;;20.29;49.51;99094.81;5072793;28;20079;-78
2022/08/13 01:11:11;;;;;;;1.90;1.80;;;;;;;20.31;49.09;99111.63;5058740;28;20219;-78
2022/08/13 01:13:40;;;;;;;2.85;1.88;;;;;;;20.44;49.58;99104.53;5070923;28;20088;-78
2022/08/13 01:16:13;;;;;;;2.08;1.98;;;;;;;20.14;50.98;99101.38;5058469;28;20116;-78
2022/08/13 01:18:41;;;;;;;2.50;2.00;;;;;;;19.88;50.25;99111.13;5079011;28;20029;-78
2022/08/13 01:21:08;;;;;;;1.98;1.85;;;;;;;19.96;49.81;99106.94;5070745;28;20033;-78
2022/08/13 01:23:34;;;;;;;3.20;2.55;;;;;;;19.54;50.90;99090.97;5074306;28;20119;-78
2022/08/13 01:26:01;;;;;;;2.38;2.10;;;;;;;19.63;50.29;99095.41;5054938;28;20044;-78
2022/08/13 01:28:28;;;;;;;2.53;2.03;;;;;;;19.93;50.22;99096.69;5069189;28;20029;-78
2022/08/13 01:30:56;;;;;;;1.95;1.85;;;;;;;20.35;49.39;99111.78;5073929;28;20032;-78
2022/08/13 01:33:23;;;;;;;2.10;1.80;;;;;;;20.23;49.25;99079.78;5071754;28;20167;-78
2022/08/13 01:35:49;;;;;;;2.08;1.80;;;;;;;20.02;49.66;99054.22;5066207;28;20059;-78
2022/08/13 01:38:19;;;;;;;4.85;2.58;;;;;;;20.16;49.77;99101.03;5088084;28;20523;-78
2022/08/13 01:40:47;;;;;;;2.63;2.08;;;;;;;19.95;49.82;99092.56;5070516;28;20024;-78
2022/08/13 01:43:13;;;;;;;3.53;1.90;;;;;;;20.18;49.94;99102.34;5054116;28;20033;-78
2022/08/13 01:45:42;;;;;;;2.63;2.10;;;;;;;20.09;49.79;99109.59;5081679;28;20044;-78
2022/08/13 01:50:52;;;;;;;2.60;2.40;;;;;;;19.99;49.69;99098.97;5062239;28;20058;-77
2022/08/13 01:53:18;;;;;;;2.38;2.17;;;;;;;19.98;49.64;99091.97;5067147;28;20094;-77
2022/08/13 01:55:46;;;;;;;2.45;2.20;;;;;;;20.07;50.01;99106.38;5069158;28;20029;-77
2022/08/13 01:58:18;;;;;;;3.22;2.92;;;;;;;20.01;49.87;99112.22;5070479;28;20439;-77
2022/08/13 02:00:51;;;;;;;4.18;2.00;;;;;;;19.91;50.25;99101.59;5079662;28;20047;-77
2022/08/13 02:03:19;;;;;;;3.65;2.10;;;;;;;19.89;50.12;99115.47;5044003;28;20059;-77
2022/08/13 02:05:50;;;;;;;2.38;2.17;;;;;;;19.78;50.30;99097.81;5072128;28;20028;-77
2022/08/13 02:08:20;;;;;;;1.90;1.80;;;;;;;19.95;50.23;99102.59;5072767;28;20028;-77
2022/08/13 02:10:47;;;;;;;2.10;2.00;;;;;;;19.46;50.32;99062.72;5041988;28;20044;-77
2022/08/13 02:13:16;;;;;;;3.22;2.13;;;;;;;19.07;52.24;99111.84;5073229;28;20040;-77
2022/08/13 02:15:42;;;;;;;3.25;1.88;;;;;;;19.41;51.69;99098.00;5081214;28;20024;-77
2022/08/13 02:18:17;;;;;;;2.30;2.10;;;;;;;19.66;50.62;99102.13;5053797;28;20084;-78
2022/08/13 02:20:44;;;;;;;3.15;2.22;;;;;;;19.31;50.58;99033.19;5071198;28;20173;-78
2022/08/13 02:23:14;;;;;;;2.50;2.30;;;;;;;19.84;50.54;99101.19;5074070;28;20028;-78
2022/08/13 02:25:41;;;;;;;3.53;2.08;;;;;;;19.72;50.27;99081.97;5072921;28;20040;-78
2022/08/13 02:28:07;;;;;;;2.33;2.00;;;;;;;19.60;50.49;99111.44;5039751;28;20051;-78
2022/08/13 02:30:33;;;;;;;2.40;2.20;;;;;;;19.55;50.91;99081.78;5054680;28;20499;-78
2022/08/13 02:32:59;;;;;;;2.25;1.90;;;;;;;19.76;50.68;99099.22;5055610;28;20037;-78
2022/08/13 02:35:28;;;;;;;2.60;2.40;;;;;;;19.63;50.80;99081.88;5071090;28;20028;-78
2022/08/13 02:37:54;;;;;;;2.00;1.80;;;;;;;19.60;50.74;99096.00;5066374;28;20031;-78
2022/08/13 02:43:05;;;;;;;2.05;1.95;;;;;;;19.51;51.10;99094.28;5047665;28;20120;-78
2022/08/13 02:45:30;;;;;;;4.35;2.53;;;;;;;19.45;51.24;99069.22;5072369;28;20027;-78
2022/08/13 02:47:57;;;;;;;2.17;1.90;;;;;;;19.47;51.47;99072.44;5070359;28;20107;-78
2022/08/13 02:50:24;;;;;;;2.10;1.90;;;;;;;19.51;51.45;99072.63;5073757;28;20037;-78
2022/08/13 02:52:51;;;;;;;5.28;2.00;;;;;;;19.14;50.94;99027.56;5076370;28;20123;-78
2022/08/13 02:55:22;;;;;;;3.08;1.95;;;;;;;18.83;51.52;99024.63;5071780;28;20124;-77
2022/08/13 02:57:49;;;;;;;2.25;1.95;;;;;;;19.25;51.67;99077.69;5064903;28;20036;-77
2022/08/13 03:00:18;;;;;;;4.28;2.10;;;;;;;18.94;51.63;99028.75;5069429;28;20048;-78
2022/08/13 03:02:44;;;;;;;2.20;1.98;;;;;;;19.53;51.50;99089.41;5065322;28;20113;-78
2022/08/13 03:05:13;;;;;;;4.97;2.30;;;;;;;19.25;51.56;99088.53;5068602;28;20033;-78
2022/08/13 03:07:43;;;;;;;2.38;2.17;;;;;;;19.03;52.45;99091.91;5068309;28;20213;-78
2022/08/13 03:10:11;;;;;;;2.45;2.25;;;;;;;19.22;51.47;99083.72;5068248;28;20116;-78
2022/08/13 03:12:40;;;;;;;2.50;2.35;;;;;;;19.30;51.95;99085.72;5066092;28;20029;-78
2022/08/13 03:15:10;;;;;;;2.80;2.42;;;;;;;19.34;51.74;99082.16;5067890;28;20047;-78
2022/08/13 03:17:39;;;;;;;3.22;2.67;;;;;;;19.28;51.73;99077.09;5050869;28;20025;-78
2022/08/13 03:20:08;;;;;;;2.95;2.05;;;;;;;19.04;52.13;99074.56;5079913;28;20036;-78
2022/08/13 03:22:57;;;;;;;3.42;2.22;;;;;;;19.10;51.96;99059.84;5065179;28;20059;-77
2022/08/13 03:25:29;;;;;;;2.58;2.28;;;;;;;19.12;51.75;99062.25;5070139;28;20157;-78
2022/08/13 03:27:57;;;;;;;3.95;2.25;;;;;;;19.04;52.36;99082.69;5070497;28;20025;-78
2022/08/13 03:30:23;;;;;;;2.38;2.17;;;;;;;19.07;52.22;99065.84;5086678;28;20029;-78
2022/08/13 03:32:51;;;;;;;2.72;2.22;;;;;;;19.15;52.21;99072.47;5073230;28;20124;-78
2022/08/13 03:35:19;;;;;;;4.65;2.30;;;;;;;19.04;52.02;99074.56;5083483;28;20043;-78
2022/08/13 03:37:49;;;;;;;3.13;2.25;;;;;;;19.03;51.96;99089.19;5068794;28;20261;-78
2022/08/13 03:40:16;;;;;;;2.55;2.20;;;;;;;18.86;52.09;99056.50;5056224;28;20073;-78
2022/08/13 03:42:42;;;;;;;3.30;2.40;;;;;;;18.99;52.11;99096.28;5071124;28;20558;-78
2022/08/13 03:45:10;;;;;;;3.03;2.72;;;;;;;18.45;53.85;99096.09;5053739;28;20020;-77
2022/08/13 03:47:37;;;;;;;2.05;1.95;;;;;;;18.78;52.09;99069.91;5068422;28;20051;-78
2022/08/13 03:50:06;;;;;;;2.85;2.13;;;;;;;18.91;52.24;99072.63;5068356;28;20033;-78
2022/08/13 03:52:33;;;;;;;5.25;2.30;;;;;;;18.98;52.53;99078.44;5070651;28;20088;-78
2022/08/13 03:54:59;;;;;;;3.42;2.53;;;;;;;18.86;52.09;99063.78;5055495;28;20029;-78
2022/08/13 03:57:25;;;;;;;4.65;2.53;;;;;;;18.88;52.72;99089.44;5054276;28;20037;-77
2022/08/13 03:59:51;;;;;;;2.42;2.22;;;;;;;18.58;52.69;99085.34;5058099;28;20048;-78
2022/08/13 04:02:17;;;;;;;2.70;2.50;;;;;;;18.74;52.78;99083.19;5071968;28;20038;-78
2022/08/13 04:04:50;;;;;;;2.40;2.20;;;;;;;18.74;52.93;99085.09;5058311;28;20537;-78
2022/08/13 04:07:19;;;;;;;2.63;2.38;;;;;;;18.43;53.13;99055.84;5059518;28;20122;-78
2022/08/13 04:09:46;;;;;;;2.90;2.70;;;;;;;18.70;53.24;99072.16;5055677;28;20489;-78
2022/08/13 04:12:13;;;;;;;3.75;2.30;;;;;;;18.64;53.34;99080.66;5068741;28;20039;-78
2022/08/13 04:14:39;;;;;;;2.38;2.22;;;;;;;18.61;52.84;99054.19;5090831;28;20024;-78
2022/08/13 04:17:10;;;;;;;3.67;2.38;;;;;;;18.68;52.99;99062.75;5056207;28;20179;-78
2022/08/13 04:19:42;;;;;;;2.42;2.28;;;;;;;18.68;52.97;99081.66;5073794;28;20032;-78
2022/08/13 04:22:13;;;;;;;4.40;2.75;;;;;;;18.60;53.59;99085.06;5068892;28;20042;-78
2022/08/13 04:24:39;;;;;;;2.75;2.55;;;;;;;18.67;53.14;99077.38;5072680;28;20024;-78
2022/08/13 04:27:05;;;;;;;4.80;2.70;;;;;;;17.83;55.77;99048.59;5068739;28;20036;-78
2022/08/13 04:29:32;;;;;;;3.88;2.65;;;;;;;18.19;54.56;99087.53;5056143;28;20037;-78
2022/08/13 04:31:59;;;;;;;3.50;2.53;;;;;;;18.54;53.71;99070.78;5069882;28;20036;-78
2022/08/13 04:34:26;;;;;;;1.98;1.88;;;;;;;18.82;52.94;99087.94;5070371;28;20029;-78
2022/08/13 04:36:52;;;;;;;2.70;2.50;;;;;;;18.95;52.72;99083.66;5068763;28;20115;-78
2022/08/13 04:39:19;;;;;;;3.72;2.83;;;;;;;19.01;52.79;99079.75;5059015;28;20132;-78
2022/08/13 04:41:45;;;;;;;2.47;2.28;;;;;;;18.85;52.66;99078.44;5064940;28;20031;-78
2022/08/13 04:44:10;;;;;;;2.50;2.30;;;;;;;18.71;53.13;99078.38;5072176;28;20032;-78
2022/08/13 04:46:36;;;;;;;3.28;2.17;;;;;;;18.27;53.96;99056.34;5084109;28;20032;-78
2022/08/13 04:49:01;;;;;;;3.13;2.78;;;;;;;18.38;53.82;99050.50;5052873;28;20514;-78
2022/08/13 04:51:29;;;;;;;4.90;3.50;;;;;;;18.33;56.88;99060.56;5071373;28;20028;-78
2022/08/13 04:53:55;;;;;;;3.45;2.40;;;;;;;18.44;54.33;99067.41;5052210;28;20029;-78
2022/08/13 04:56:21;;;;;;;2.65;2.45;;;;;;;18.91;53.46;99088.06;5069303;28;20032;-78
2022/08/13 04:58:47;;;;;;;5.00;2.70;;;;;;;18.67;53.37;99059.22;5047968;28;20047;-78
2022/08/13 05:01:12;;;;;;;4.60;3.20;;;;;;;18.13;57.88;99039.28;5071294;28;20032;-78
2022/08/13 05:03:41;;;;;;;4.32;3.03;;;;;;;18.02;58.41;99076.41;5070561;28;20059;-78
2022/08/13 05:06:18;;;;;;;3.63;3.30;;;;;;;17.92;59.19;99077.38;5054347;28;20036;-78
2022/08/13 05:08:51;;;;;;;5.35;3.40;;;;;;;17.70;61.40;99085.19;5071261;28;20035;-78
2022/08/13 05:11:19;;;;;;;5.03;3.60;;;;;;;17.53;62.74;99094.84;5072311;28;20061;-78
2022/08/13 05:13:45;;;;;;;7.63;3.80;;;;;;;17.13;63.63;99063.69;5065507;28;20052;-78
2022/08/13 05:16:14;;;;;;;4.68;3.30;;;;;;;17.17;64.36;99086.31;5071141;28;20032;-78
2022/08/13 05:18:50;;;;;;;5.68;3.65;;;;;;;17.09;64.31;99090.44;5077966;28;20464;-77
2022/08/13 05:21:16;;;;;;;5.47;3.92;;;;;;;17.01;64.47;99095.66;5074275;28;20029;-78
2022/08/13 05:23:42;;;;;;;3.88;3.33;;;;;;;17.03;64.33;99088.88;5073824;28;20045;-78
2022/08/13 05:26:08;;;;;;;4.95;4.07;;;;;;;17.01;63.75;99080.28;5069603;28;20060;-78
2022/08/13 05:28:34;;;;;;;4.03;3.70;;;;;;;17.01;63.86;99058.69;5039716;28;20088;-78
2022/08/13 05:31:00;;;;;;;5.13;3.90;;;;;;;17.14;63.79;99070.69;5054953;28;20063;-78
2022/08/13 05:33:28;;;;;;;3.40;2.78;;;;;;;17.38;61.95;99079.63;5055420;28;20037;-78
2022/08/13 05:35:59;;;;;;;4.50;3.55;;;;;;;17.61;59.82;99054.53;5076801;28;20031;-78
2022/08/13 05:38:26;;;;;;;3.83;2.75;;;;;;;17.72;61.16;99080.31;5055568;28;20032;-78
2022/08/13 05:40:58;;;;;;;5.10;3.92;;;;;;;17.81;62.00;99084.00;5071148;28;20020;-78
2022/08/13 05:43:26;;;;;;;5.55;4.20;;;;;;;17.67;62.31;99083.06;5077680;28;20417;-78
2022/08/13 05:45:58;;;;;;;6.18;4.30;;;;;;;17.61;63.52;99094.22;5069395;28;20029;-78
2022/08/13 05:48:26;;;;;;;5.70;4.05;;;;;;;17.33;63.61;99084.25;5085395;28;20549;-78
2022/08/13 05:50:51;;;;;;;6.40;4.07;;;;;;;17.01;64.48;99087.56;5065895;28;20029;-78
2022/08/13 05:53:17;;;;;;;6.70;4.40;;;;;;;17.22;65.00;99097.06;5049728;28;20070;-78
2022/08/13 05:55:43;;;;;;;11.25;4.22;;;;;;;17.12;64.61;99065.56;5051965;28;20032;-78
2022/08/13 05:58:11;;;;;;;4.05;3.63;;;;;;;17.45;64.68;99084.69;5054075;28;20032;-78
2022/08/13 06:03:25;;;;;;;6.10;4.18;;;;;;;17.67;63.84;99093.88;5069421;28;20393;-78
2022/08/13 06:06:21;;;;;;;3.95;2.67;;;;;;;18.41;58.53;99087.72;5052277;28;20056;-78
2022/08/13 06:08:46;;;;;;;3.03;2.57;;;;;;;18.37;61.01;99088.63;5072994;28;20048;-78
2022/08/13 06:11:17;;;;;;;7.68;4.22;;;;;;;18.08;63.25;99082.56;5066681;28;20017;-78
2022/08/13 06:13:45;;;;;;;6.57;4.32;;;;;;;17.96;64.25;99085.69;5069581;28;20112;-78
2022/08/13 06:16:13;;;;;;;8.75;4.15;;;;;;;17.88;63.42;99087.16;5071749;28;20035;-78
2022/08/13 06:18:43;;;;;;;6.07;2.67;;;;;;;18.08;59.98;99061.75;5068017;28;20163;-77
2022/08/13 06:21:11;;;;;;;5.80;3.97;;;;;;;18.26;63.93;99087.94;5069929;28;20519;-78
2022/08/13 06:23:38;;;;;;;5.00;4.53;;;;;;;18.09;64.72;99087.66;5056787;28;20025;-77
2022/08/13 06:26:06;;;;;;;3.08;2.75;;;;;;;18.05;60.59;99091.22;5075960;28;20036;-77
2022/08/13 06:28:33;;;;;;;6.15;4.82;;;;;;;17.87;62.92;99077.41;5055103;28;20058;-77
2022/08/13 06:31:01;;;;;;;5.82;4.70;;;;;;;18.10;62.94;99094.69;5069475;28;20503;-77
2022/08/13 06:33:28;;;;;;;7.72;4.90;;;;;;;17.81;63.02;99070.50;5067565;28;20048;-77
2022/08/13 06:35:56;;;;;;;9.10;4.75;;;;;;;18.13;62.40;99104.13;5051841;28;20044;-78
2022/08/13 06:38:25;;;;;;;6.32;4.15;;;;;;;18.32;62.88;99102.22;5062992;28;20036;-78
2022/08/13 06:40:52;;;;;;;4.20;3.80;;;;;;;18.41;62.99;99100.47;5070096;28;20021;-78
2022/08/13 06:43:19;;;;;;;2.58;2.40;;;;;;;19.09;57.48;99096.09;5066598;28;20082;-78
2022/08/13 06:45:46;;;;;;;3.47;3.22;;;;;;;19.39;57.98;99087.50;5068208;28;20017;-78
2022/08/13 06:48:13;;;;;;;4.50;4.10;;;;;;;18.92;60.54;99103.19;5068378;28;20043;-79
2022/08/13 06:50:38;;;;;;;5.43;4.28;;;;;;;18.85;61.12;99106.25;5068641;28;20028;-78
2022/08/13 06:53:08;;;;;;;3.08;2.78;;;;;;;18.98;58.18;99094.69;5067138;28;20039;-78
2022/08/13 06:55:40;;;;;;;4.60;4.20;;;;;;;18.94;61.19;99104.50;5049607;28;20399;-79
2022/08/13 06:58:09;;;;;;;6.15;3.53;;;;;;;18.93;60.62;99104.78;5056968;28;20044;-78
2022/08/13 07:00:38;;;;;;;3.58;3.10;;;;;;;18.94;60.08;99085.56;5071286;28;20023;-78
2022/08/13 07:03:05;;;;;;;5.25;3.55;;;;;;;18.87;60.14;99092.47;5054676;28;20119;-78
2022/08/13 07:05:33;;;;;;;4.60;3.88;;;;;;;18.89;59.83;99082.16;5067685;28;20033;-78
2022/08/13 07:08:02;;;;;;;4.00;3.30;;;;;;;19.33;59.02;99085.16;5063587;28;20119;-78
2022/08/13 07:10:28;;;;;;;3.58;2.75;;;;;;;19.87;55.83;99058.06;5074334;28;20111;-77
2022/08/13 07:12:56;;;;;;;11.70;4.05;;;;;;;19.37;57.49;99065.28;5065493;28;20100;-77
2022/08/13 07:15:24;;;;;;;6.40;2.92;;;;;;;19.74;56.38;99042.66;5068891;28;20039;-76
2022/08/13 07:17:51;;;;;;;4.15;3.42;;;;;;;20.10;56.43;99088.72;5072963;28;20012;-76
2022/08/13 07:20:18;;;;;;;3.70;3.40;;;;;;;20.47;54.27;99066.75;5084673;28;20025;-76
2022/08/13 07:22:44;;;;;;;5.00;3.00;;;;;;;20.79;52.69;99028.50;5086702;28;20020;-77
2022/08/13 07:25:11;;;;;;;3.47;3.17;;;;;;;20.25;55.61;99074.84;5067469;28;20274;-77
2022/08/13 07:27:39;;;;;;;245.85;62.70;;;;;;;21.05;54.21;99083.00;5080736;28;20423;-77
2022/08/13 07:30:05;;;;;;;124.80;40.70;;;;;;;21.30;53.62;99066.00;5077589;28;20040;-77
2022/08/13 07:32:38;;;;;;;76.05;23.33;;;;;;;21.38;52.54;99067.19;5060971;28;20100;-76
2022/08/13 07:35:04;;;;;;;5.22;3.10;;;;;;;21.12;53.90;99082.53;5074249;28;20028;-77
2022/08/13 07:37:31;;;;;;;3.83;3.42;;;;;;;20.80;54.66;99086.28;5078645;28;20053;-77
2022/08/13 07:39:59;;;;;;;6.10;3.42;;;;;;;20.68;55.71;99077.94;5078875;28;20027;-77
2022/08/13 07:42:28;;;;;;;31.98;4.80;;;;;;;20.99;55.14;99088.81;5071285;28;20032;-78
2022/08/13 07:44:53;;;;;;;3.28;2.97;;;;;;;20.74;55.45;99082.91;5078797;28;20039;-76
2022/08/13 07:47:21;;;;;;;3.58;2.80;;;;;;;20.73;55.74;99085.91;5046067;28;20036;-76
2022/08/13 07:49:48;;;;;;;24.80;6.82;;;;;;;21.11;55.29;99079.03;5069984;28;20119;-77
2022/08/13 07:52:16;;;;;;;4.38;3.03;;;;;;;20.98;56.23;99057.34;5077249;28;20107;-76
2022/08/13 07:54:43;;;;;;;18.10;7.63;;;;;;;21.46;54.82;99077.25;5082138;28;20028;-77
2022/08/13 07:57:10;;;;;;;202.60;65.93;;;;;;;21.22;55.28;99076.84;5075879;28;20496;-77
2022/08/13 07:59:36;;;;;;;7.20;4.95;;;;;;;21.28;56.33;99076.38;5074140;28;20028;-78
2022/08/13 08:02:05;;;;;;;729.47;257.30;;;;;;;21.54;54.35;99057.47;5078356;28;20028;-76
2022/08/13 08:04:34;;;;;;;11.48;5.82;;;;;;;21.83;56.11;99063.19;5074383;28;20175;-76
2022/08/13 08:07:01;;;;;;;5.18;3.17;;;;;;;21.54;55.65;99076.50;5069330;28;20025;-76
2022/08/13 08:09:29;;;;;;;3.78;3.33;;;;;;;21.30;54.80;99066.00;5074229;28;20119;-78
2022/08/13 08:14:42;;;;;;;71.53;23.75;;;;;;;22.42;53.00;99055.41;5077162;28;20569;-78
2022/08/13 08:17:10;;;;;;;3.08;2.83;;;;;;;22.13;54.29;99075.88;5090858;28;20033;-78
2022/08/13 08:19:40;;;;;;;11.63;5.50;;;;;;;22.16;54.50;99064.38;5075952;28;20036;-78
2022/08/13 08:22:07;;;;;;;3.78;3.42;;;;;;;22.05;55.07;99062.25;5073839;28;20055;-76
2022/08/13 08:24:33;;;;;;;12.10;5.93;;;;;;;22.79;53.22;99079.25;5075588;28;20029;-78
2022/08/13 08:27:04;;;;;;;7.15;3.30;;;;;;;22.50;53.61;99058.13;5075207;28;20028;-79
2022/08/13 08:29:32;;;;;;;10.50;4.93;;;;;;;23.25;52.69;99073.06;5076702;28;20036;-79
2022/08/13 08:32:07;;;;;;;6.68;3.55;;;;;;;22.90;53.09;99075.06;5076356;28;20025;-78
2022/08/13 08:34:34;;;;;;;10.50;3.97;;;;;;;23.00;51.77;99007.44;5072310;28;20033;-79
2022/08/13 08:37:00;;;;;;;7.80;3.50;;;;;;;23.42;51.23;99043.84;5071059;28;20041;-76
2022/08/13 08:44:57;;;;;;;7.38;3.28;;;;;;;22.92;52.16;99053.75;5072693;28;20046;-79
2022/08/13 08:47:35;;;;;;;4.50;3.70;;;;;;;23.27;53.08;99081.69;5071218;28;20025;-78
2022/08/13 08:50:01;;;;;;;5.78;3.72;;;;;;;23.41;52.33;99071.44;5072657;28;20082;-79
2022/08/13 08:53:19;;;;;;;3.60;3.33;;;;;;;22.98;52.47;99025.22;5039887;28;20036;-77
2022/08/13 08:55:16;;;;;;;44.50;12.30;;;;;;;23.38;52.43;99070.16;5066673;28;20031;-77
2022/08/13 08:57:46;;;;;;;526.78;138.73;;;;;;;23.71;52.13;99060.22;5056111;28;20029;-78
2022/08/13 09:00:17;;;;;;;372.90;95.15;;;;;;;24.28;50.79;99073.34;5070630;28;20484;-77
2022/08/13 09:02:46;;;;;;;97.75;25.08;;;;;;;24.19;51.13;99059.78;5071904;28;20090;-77
2022/08/13 09:05:15;;;;;;;8.52;4.20;;;;;;;24.66;50.17;99065.78;5071512;28;20040;-77
2022/08/13 09:07:46;;;;;;;4.78;4.00;;;;;;;24.08;50.67;99053.13;5083175;28;20092;-77
2022/08/13 09:10:13;;;;;;;6.60;3.92;;;;;;;24.20;51.82;99057.84;5076582;28;20028;-77
2022/08/13 09:12:42;;;;;;;4.50;3.63;;;;;;;24.28;51.80;99054.25;5073900;28;20024;-77
2022/08/13 09:15:09;;;;;;;5.10;3.65;;;;;;;24.41;51.26;99067.63;5076082;28;20029;-77
2022/08/13 09:17:36;;;;;;;4.68;3.50;;;;;;;25.00;50.14;99057.31;5076018;28;20150;-77
2022/08/13 09:20:03;;;;;;;5.25;4.20;;;;;;;25.47;49.17;99046.00;5059110;28;20024;-77
2022/08/13 09:22:29;;;;;;;4.70;4.20;;;;;;;24.69;49.63;99012.44;5073425;28;20048;-77
2022/08/13 09:24:57;;;;;;;161.80;43.20;;;;;;;25.24;49.88;99056.53;5073247;28;20028;-78
2022/08/13 09:27:22;;;;;;;289.52;64.90;;;;;;;25.70;49.32;99030.72;5058885;28;20047;-77
2022/08/13 09:29:50;;;;;;;347.92;74.03;;;;;;;25.79;48.61;99028.69;5066883;28;20032;-77
2022/08/13 09:32:17;;;;;;;5.68;4.57;;;;;;;25.73;48.60;99036.31;5049952;28;20031;-77
2022/08/13 09:34:45;;;;;;;213.45;57.53;;;;;;;26.29;47.83;99026.31;5085651;28;20476;-79
2022/08/13 09:37:12;;;;;;;101.40;28.50;;;;;;;26.23;47.17;99022.25;5068925;28;20032;-78
2022/08/13 09:39:52;;;;;;;6.38;4.25;;;;;;;25.54;46.85;99027.88;5067804;28;20372;-78
2022/08/13 09:42:27;;;;;;;5.82;3.75;;;;;;;25.50;46.50;99032.44;5048565;28;20024;-77
2022/08/13 09:45:00;;;;;;;7.20;4.43;;;;;;;25.28;47.50;99013.72;5051935;28;20461;-78
2022/08/13 09:47:26;;;;;;;8.02;3.95;;;;;;;25.14;47.44;99014.06;5027781;28;20034;-78
2022/08/13 09:49:51;;;;;;;5.13;4.65;;;;;;;25.51;47.09;99017.63;5025708;28;20040;-78
2022/08/13 09:52:17;;;;;;;5.25;4.40;;;;;;;25.29;47.56;99021.59;5030481;28;20029;-78
2022/08/13 09:54:43;;;;;;;4.60;4.25;;;;;;;25.48;47.69;99020.25;5036037;28;20026;-78
2022/08/13 09:57:09;;;;;;;4.88;4.10;;;;;;;25.95;45.81;99019.41;5047284;28;20033;-78
2022/08/13 09:59:35;;;;;;;373.83;82.10;;;;;;;26.50;45.88;99004.19;5028179;28;20056;-78
2022/08/13 10:02:05;;;;;;;107.38;26.52;;;;;;;26.08;46.27;99000.25;5037529;28;20397;-78
2022/08/13 10:04:32;;;;;;;236.30;56.60;;;;;;;26.57;46.71;99007.94;5029745;28;20041;-78
2022/08/13 10:06:59;;;;;;;8.95;5.10;;;;;;;26.77;46.02;99010.84;5031946;28;20037;-78
2022/08/13 10:09:28;;;;;;;4.50;4.05;;;;;;;26.36;46.18;99007.38;5025869;28;20132;-78
2022/08/13 10:11:53;;;;;;;4.22;3.80;;;;;;;26.41;46.25;99000.81;5040596;28;20072;-79
2022/08/13 10:14:19;;;;;;;4.47;4.05;;;;;;;26.30;45.90;99008.72;5033151;28;20442;-78
2022/08/13 10:16:45;;;;;;;4.68;4.00;;;;;;;26.39;44.68;98997.63;5046832;28;20052;-79
2022/08/13 10:19:10;;;;;;;3.95;3.65;;;;;;;25.70;45.48;98986.97;5027839;28;20179;-78
2022/08/13 10:21:35;;;;;;;3.95;3.65;;;;;;;26.02;46.13;98984.06;5022149;28;20029;-79
2022/08/13 10:24:01;;;;;;;4.35;3.75;;;;;;;26.52;45.31;98989.03;5023950;28;20027;-78
2022/08/13 10:26:27;;;;;;;7.07;4.00;;;;;;;26.37;45.67;98978.81;5015225;28;20025;-78
2022/08/13 10:28:52;;;;;;;10.60;4.72;;;;;;;27.27;45.30;98978.06;5034777;28;20033;-79
2022/08/13 10:31:17;;;;;;;22.52;7.90;;;;;;;26.99;44.61;98969.16;5037366;28;20409;-79
2022/08/13 10:33:43;;;;;;;41.72;12.75;;;;;;;27.37;44.34;98966.59;5030672;28;20469;-79
2022/08/13 10:36:10;;;;;;;20.15;6.32;;;;;;;27.73;42.84;98968.19;5034134;28;20112;-79
2022/08/13 10:38:35;;;;;;;7.18;4.47;;;;;;;27.96;43.17;98964.41;5025824;28;20030;-78
2022/08/13 10:41:07;;;;;;;3.97;3.47;;;;;;;27.86;42.32;98964.97;5006146;28;20104;-79
2022/08/13 10:43:38;;;;;;;6.28;3.83;;;;;;;27.30;42.69;98961.69;5026167;28;20045;-79
2022/08/13 10:46:06;;;;;;;10.73;5.85;;;;;;;28.20;41.39;98969.63;5021174;28;20080;-78
2022/08/13 10:48:31;;;;;;;6.00;4.68;;;;;;;28.23;42.04;98956.34;5009008;28;20049;-79
2022/08/13 10:50:57;;;;;;;5.00;4.35;;;;;;;28.77;42.02;98962.50;5039793;28;20060;-79
2022/08/13 10:56:09;;;;;;;5.60;4.40;;;;;;;29.54;41.14;98952.81;5023795;28;20044;-79
2022/08/13 10:58:35;;;;;;;5.90;4.57;;;;;;;28.38;42.00;98949.97;5007062;28;20433;-79
2022/08/13 11:01:04;;;;;;;4.90;3.95;;;;;;;28.13;41.38;98950.28;5014914;28;20037;-79
2022/08/13 11:03:33;;;;;;;4.00;3.63;;;;;;;28.85;40.80;98959.50;5008859;28;20425;-79
2022/08/13 11:06:00;;;;;;;11.70;4.00;;;;;;;28.77;41.54;98957.00;5011251;28;20030;-79
2022/08/13 11:08:26;;;;;;;3.58;3.30;;;;;;;29.49;38.82;98939.38;5005609;28;20034;-80
2022/08/13 11:10:52;;;;;;;4.15;3.72;;;;;;;29.65;38.62;98937.25;5023585;28;20034;-79
2022/08/13 11:13:17;;;;;;;8.85;3.90;;;;;;;30.41;38.52;98931.53;5006571;28;20032;-79
2022/08/13 11:15:43;;;;;;;7.32;3.90;;;;;;;29.36;39.30;98940.75;4996975;28;20112;-78
2022/08/13 11:18:09;;;;;;;195.13;48.42;;;;;;;30.12;38.73;98930.41;5024519;28;20030;-79
2022/08/13 11:21:02;;;;;;;63.10;17.42;;;;;;;30.18;38.61;98937.16;5004873;28;20121;-79
2022/08/13 11:23:20;;;;;;;4.05;3.42;;;;;;;29.84;37.80;98924.56;5014899;28;20072;-79
2022/08/13 11:25:45;;;;;;;7.88;4.85;;;;;;;29.66;38.67;98936.06;5010431;28;20042;-79
2022/08/13 11:28:12;;;;;;;11.00;5.00;;;;;;;29.89;38.55;98925.00;5017518;28;20038;-79
2022/08/13 11:30:38;;;;;;;4.13;3.47;;;;;;;30.10;37.79;98916.22;4987630;28;20065;-78
2022/08/13 11:33:07;;;;;;;11.85;3.85;;;;;;;30.31;37.76;98922.00;5017223;28;20022;-78
2022/08/13 11:35:35;;;;;;;644.75;189.27;;;;;;;30.49;38.18;98909.22;5007118;28;20389;-79
2022/08/13 11:38:08;;;;;;;4.47;4.05;;;;;;;30.66;36.80;98914.09;4996692;28;20049;-79
2022/08/13 11:40:34;;;;;;;8.23;4.65;;;;;;;30.52;37.23;98911.19;5027310;28;20034;-79
2022/08/13 11:43:01;;;;;;;4.13;3.78;;;;;;;29.70;38.27;98902.31;5016962;28;20046;-79
2022/08/13 11:45:26;;;;;;;6.82;4.50;;;;;;;28.90;38.54;98895.19;5012547;28;20450;-78
2022/08/13 11:47:52;;;;;;;66.53;19.80;;;;;;;29.58;38.31;98900.56;5012350;28;20104;-79
2022/08/13 11:50:18;;;;;;;16.75;7.10;;;;;;;29.18;38.08;98894.91;5003691;28;20121;-79
2022/08/13 11:52:43;;;;;;;879.03;212.40;;;;;;;29.34;37.85;98901.81;5009729;28;20105;-78
2022/08/13 11:55:08;;;;;;;495.85;141.43;;;;;;;29.87;38.94;98902.56;5012415;28;21062;-79
2022/08/13 11:57:34;;;;;;;6.40;3.30;;;;;;;29.25;37.74;98895.78;4997521;28;20044;-78
2022/08/13 12:00:00;;;;;;;5.10;3.38;;;;;;;29.09;39.03;98889.63;5017625;28;20072;-77